Phoenix, Arizona
Current Conditions -  °F | °C
As of 8:51 PM on Wednesday 22 Oct 2014 (Local Time) from KPHX Reporting Station
Clear Clear  
Wind Chill: 78°   Ceiling: Unl
Heat Index: 79°   Visibility: 10mi
Dew Point: 55°   Wind: 5mph
Humidity: 45%   Direction: 230°SW
Pressure: 29.92"   Gusts: NA
Location:  33.45°N, 112.08°W
Report Text: KPHX 230351Z 23004KT 10SM CLR 26/13 A2992 RMK AO2 SLP118 T02560128
Loading
Personal Weather Stations






























Interactive Weather Map
Tropical Storm Tracking
New forecast layout! Learn more

10-Day Weather Forecast

Advertisements
Track Severe Weather on mobile